Time;durP1;ratioP1;P1;durP2;ratioP2;P2;SDS_P1;SDS_P2;PMS_P1;PMS_P2;Temp;Humidity;BMP_temperature;BMP_pressure;BME280_temperature;BME280_humidity;BME280_pressure;Samples;Min_cycle;Max_cycle;Signal;HPM_P1;HPM_P2
2021/09/07 00:00:23;;;;;;;12.55;8.90;;;14.30;83.00;;;;;;5032993;28;20266;-68
2021/09/07 00:02:50;;;;;;;9.48;7.55;;;14.20;83.10;;;;;;5032962;28;20187;-69
2021/09/07 00:05:17;;;;;;;9.13;7.28;;;14.20;83.90;;;;;;5033200;28;20422;-70
2021/09/07 00:07:46;;;;;;;7.45;6.60;;;14.10;83.40;;;;;;5032675;28;20191;-69
2021/09/07 00:10:14;;;;;;;8.95;7.63;;;14.10;83.30;;;;;;5033167;28;20266;-69
2021/09/07 00:12:42;;;;;;;9.48;8.05;;;14.10;83.30;;;;;;5032571;28;20187;-69
2021/09/07 00:15:12;;;;;;;7.97;7.00;;;14.00;83.40;;;;;;5032966;28;20223;-69
2021/09/07 00:17:40;;;;;;;11.32;7.32;;;14.00;83.30;;;;;;5032361;28;20221;-70
2021/09/07 00:20:11;;;;;;;10.32;7.95;;;13.90;83.20;;;;;;5032144;28;20664;-69
2021/09/07 00:22:39;;;;;;;8.65;7.20;;;13.80;83.60;;;;;;5032326;28;20187;-69
2021/09/07 00:25:08;;;;;;;8.90;6.82;;;13.80;85.20;;;;;;5032710;28;20371;-69
2021/09/07 00:27:36;;;;;;;9.35;6.95;;;13.80;85.10;;;;;;5032869;28;20194;-69
2021/09/07 00:30:04;;;;;;;9.57;7.97;;;13.70;84.90;;;;;;5031716;28;20227;-71
2021/09/07 00:32:31;;;;;;;9.52;7.97;;;13.80;85.60;;;;;;5032214;28;20257;-70
2021/09/07 00:34:59;;;;;;;10.18;7.88;;;13.70;85.20;;;;;;5031883;28;20292;-69
2021/09/07 00:37:26;;;;;;;9.77;8.32;;;13.70;85.30;;;;;;5032533;28;20608;-69
2021/09/07 00:39:53;;;;;;;9.68;8.27;;;13.60;86.50;;;;;;5032370;28;20191;-69
2021/09/07 00:42:22;;;;;;;9.20;7.95;;;13.60;86.50;;;;;;5032173;28;20202;-68
2021/09/07 00:44:49;;;;;;;8.57;7.13;;;13.60;86.80;;;;;;5031452;28;20219;-70
2021/09/07 00:47:17;;;;;;;11.13;7.97;;;13.60;87.50;;;;;;5031706;28;20191;-68
2021/09/07 00:49:44;;;;;;;9.30;8.30;;;13.60;87.80;;;;;;5031354;28;20187;-73
2021/09/07 00:52:12;;;;;;;9.40;7.10;;;13.70;87.30;;;;;;5031434;28;20278;-69
2021/09/07 00:54:39;;;;;;;8.40;7.38;;;13.60;86.60;;;;;;5030630;28;20214;-69
2021/09/07 00:57:08;;;;;;;11.32;8.05;;;13.60;86.40;;;;;;5031363;28;20191;-69
2021/09/07 00:59:38;;;;;;;8.82;7.60;;;13.50;87.40;;;;;;5030911;28;20209;-69
2021/09/07 01:02:06;;;;;;;10.10;8.40;;;13.40;88.00;;;;;;5031476;28;20630;-69
2021/09/07 01:04:34;;;;;;;9.80;8.02;;;13.30;87.70;;;;;;5031056;28;20187;-68
2021/09/07 01:07:01;;;;;;;14.55;9.82;;;13.30;87.90;;;;;;5031070;28;20237;-69
2021/09/07 01:09:28;;;;;;;9.15;7.70;;;13.20;89.00;;;;;;5031193;28;20338;-69
2021/09/07 01:11:56;;;;;;;10.70;8.50;;;13.20;89.10;;;;;;5031462;28;20199;-69
2021/09/07 01:14:31;;;;;;;9.73;7.80;;;13.20;89.40;;;;;;5030906;28;20218;-69
2021/09/07 01:17:01;;;;;;;9.13;8.15;;;13.30;89.60;;;;;;5030922;28;20227;-69
2021/09/07 01:19:28;;;;;;;9.38;7.88;;;13.30;89.50;;;;;;5030703;28;20182;-69
2021/09/07 01:21:55;;;;;;;10.15;7.28;;;13.30;89.20;;;;;;5031247;28;20202;-71
2021/09/07 01:24:25;;;;;;;9.32;8.27;;;13.30;87.70;;;;;;5031099;28;20188;-69
2021/09/07 01:26:52;;;;;;;8.82;7.78;;;13.20;87.50;;;;;;5031405;28;20195;-69
2021/09/07 01:29:20;;;;;;;10.68;7.32;;;13.30;87.80;;;;;;5030918;28;20210;-69
2021/09/07 01:31:47;;;;;;;8.95;7.78;;;13.20;86.90;;;;;;5031408;28;20199;-69
2021/09/07 01:34:21;;;;;;;9.30;7.88;;;13.20;87.40;;;;;;5030974;28;20215;-69
2021/09/07 01:36:48;;;;;;;8.32;6.90;;;13.20;87.70;;;;;;5031478;28;20256;-69
2021/09/07 01:39:16;;;;;;;7.85;6.70;;;13.10;86.90;;;;;;5030982;28;20191;-69
2021/09/07 01:41:44;;;;;;;11.43;6.60;;;13.10;86.70;;;;;;5031544;28;20760;-68
2021/09/07 01:44:12;;;;;;;8.60;7.63;;;13.10;86.40;;;;;;5013621;28;1198115;-69
2021/09/07 01:46:39;;;;;;;10.25;7.95;;;13.00;86.90;;;;;;5016202;28;20737;-68
2021/09/07 01:49:09;;;;;;;9.10;7.90;;;13.00;87.30;;;;;;5019986;28;20649;-69
2021/09/07 01:51:36;;;;;;;9.07;7.38;;;13.00;87.30;;;;;;5035737;28;20194;-68
2021/09/07 01:54:04;;;;;;;9.45;6.85;;;13.00;87.40;;;;;;5035335;28;20186;-69
2021/09/07 01:56:31;;;;;;;10.05;7.13;;;12.90;87.00;;;;;;5035782;28;20199;-69
2021/09/07 01:59:01;;;;;;;8.05;6.75;;;12.90;87.40;;;;;;5035550;28;20282;-69
2021/09/07 02:01:28;;;;;;;7.97;6.57;;;12.90;87.30;;;;;;5035274;28;20261;-68
2021/09/07 02:04:01;;;;;;;11.07;8.48;;;12.90;87.20;;;;;;5035778;28;20187;-69
2021/09/07 02:06:28;;;;;;;10.30;7.40;;;13.00;87.00;;;;;;5035419;28;20253;-73
2021/09/07 02:08:55;;;;;;;8.48;7.43;;;12.90;86.50;;;;;;5035477;28;20186;-69
2021/09/07 02:11:22;;;;;;;9.95;7.00;;;12.90;86.00;;;;;;5035762;28;20278;-69
2021/09/07 02:13:49;;;;;;;7.20;6.40;;;12.90;85.80;;;;;;5035125;28;20649;-72
2021/09/07 02:16:18;;;;;;;7.75;6.95;;;12.80;85.80;;;;;;5035729;28;20219;-69
2021/09/07 02:18:45;;;;;;;8.50;6.90;;;12.80;86.10;;;;;;5035139;28;20700;-69
2021/09/07 02:21:13;;;;;;;6.80;5.65;;;12.80;85.80;;;;;;5035641;28;20187;-69
2021/09/07 02:23:40;;;;;;;8.90;7.00;;;12.70;85.50;;;;;;5034727;28;20564;-69
2021/09/07 02:26:07;;;;;;;7.93;6.70;;;12.70;85.40;;;;;;5034534;28;21088;-69
2021/09/07 02:28:34;;;;;;;7.35;5.75;;;12.70;85.60;;;;;;5034866;28;20187;-69
2021/09/07 02:31:01;;;;;;;6.13;5.53;;;12.60;85.60;;;;;;5034539;28;20293;-71
2021/09/07 02:33:30;;;;;;;5.82;5.22;;;12.70;85.80;;;;;;5034885;28;20281;-68
2021/09/07 02:35:57;;;;;;;6.80;6.05;;;12.70;86.10;;;;;;5034666;28;20259;-69
2021/09/07 02:38:25;;;;;;;6.90;5.50;;;12.70;86.20;;;;;;5034822;28;20199;-69
2021/09/07 02:40:57;;;;;;;7.32;6.30;;;12.70;86.30;;;;;;5034491;28;20198;-69
2021/09/07 02:43:24;;;;;;;7.10;6.40;;;12.70;86.00;;;;;;5034792;28;20269;-69
2021/09/07 02:45:53;;;;;;;7.72;5.47;;;12.70;85.70;;;;;;5034263;28;20310;-69
2021/09/07 02:48:21;;;;;;;7.03;5.38;;;12.60;85.80;;;;;;5034883;28;20604;-71
2021/09/07 02:50:49;;;;;;;6.75;5.63;;;12.60;85.90;;;;;;5034009;28;20199;-68
2021/09/07 02:53:17;;;;;;;7.30;5.50;;;12.60;85.60;;;;;;5034368;28;20187;-69
2021/09/07 02:55:44;;;;;;;6.60;5.40;;;12.60;85.00;;;;;;5034139;28;20245;-68
2021/09/07 02:58:11;;;;;;;6.05;4.80;;;12.50;84.60;;;;;;5034067;28;20274;-70
2021/09/07 03:00:38;;;;;;;8.52;5.60;;;12.40;84.10;;;;;;5033999;28;20227;-68
2021/09/07 03:03:05;;;;;;;7.85;6.45;;;12.40;84.30;;;;;;5034146;28;20233;-69
2021/09/07 03:05:32;;;;;;;7.15;4.68;;;12.30;84.70;;;;;;5033776;28;20237;-68
2021/09/07 03:08:04;;;;;;;6.97;5.22;;;12.20;85.70;;;;;;5034115;28;20206;-68
2021/09/07 03:10:33;;;;;;;6.97;5.70;;;12.20;85.70;;;;;;5034061;28;20183;-69
2021/09/07 03:13:00;;;;;;;6.90;4.80;;;12.20;85.40;;;;;;5034161;28;20636;-69
2021/09/07 03:15:27;;;;;;;12.32;7.13;;;12.20;85.80;;;;;;5033120;28;20576;-70
2021/09/07 03:17:54;;;;;;;6.63;5.10;;;12.20;85.70;;;;;;5033804;28;20183;-69
2021/09/07 03:20:22;;;;;;;8.63;5.80;;;12.20;86.50;;;;;;5033712;28;20191;-72
2021/09/07 03:22:49;;;;;;;7.20;6.45;;;12.20;86.60;;;;;;5034074;28;20213;-68
2021/09/07 03:25:18;;;;;;;7.13;6.15;;;12.20;86.50;;;;;;5033243;28;20235;-69
2021/09/07 03:27:45;;;;;;;7.47;6.47;;;12.20;86.40;;;;;;5033927;28;20242;-69
2021/09/07 03:30:13;;;;;;;10.13;6.72;;;12.20;86.20;;;;;;5033293;28;20207;-69
2021/09/07 03:32:40;;;;;;;8.55;6.35;;;12.20;86.20;;;;;;5033862;28;20287;-69
2021/09/07 03:35:08;;;;;;;6.00;5.00;;;12.20;86.00;;;;;;5033572;28;20609;-69
2021/09/07 03:37:35;;;;;;;6.60;5.45;;;12.20;86.40;;;;;;5033965;28;20244;-68
2021/09/07 03:40:03;;;;;;;7.78;5.45;;;12.10;87.30;;;;;;5033235;28;20657;-68
2021/09/07 03:42:34;;;;;;;7.18;5.68;;;12.10;87.50;;;;;;5033365;28;20262;-69
2021/09/07 03:45:01;;;;;;;5.85;4.60;;;12.10;86.90;;;;;;5033604;28;20649;-70
2021/09/07 03:47:28;;;;;;;7.07;6.22;;;12.10;86.90;;;;;;5032983;28;20229;-69
2021/09/07 03:49:55;;;;;;;6.53;5.72;;;12.00;86.70;;;;;;5033427;28;20187;-68
2021/09/07 03:52:23;;;;;;;8.18;5.60;;;12.00;86.50;;;;;;5032942;28;20273;-69
2021/09/07 03:54:50;;;;;;;9.27;7.47;;;12.00;86.50;;;;;;5033388;28;20277;-68
2021/09/07 03:57:17;;;;;;;11.60;7.38;;;12.00;87.20;;;;;;5033176;28;20206;-70
2021/09/07 03:59:46;;;;;;;11.10;7.80;;;12.00;87.70;;;;;;5033378;28;20187;-68
2021/09/07 04:02:13;;;;;;;10.32;7.65;;;11.90;88.40;;;;;;5032904;28;20190;-69
2021/09/07 04:04:40;;;;;;;12.25;8.25;;;11.90;88.70;;;;;;5033595;28;20191;-68
2021/09/07 04:07:07;;;;;;;10.85;7.30;;;12.00;89.10;;;;;;5032476;28;20190;-69
2021/09/07 04:09:34;;;;;;;7.43;6.30;;;12.00;89.30;;;;;;5033722;28;20565;-69
2021/09/07 04:12:01;;;;;;;7.93;5.97;;;12.10;89.20;;;;;;5033370;28;20179;-68
2021/09/07 04:14:29;;;;;;;9.35;6.38;;;12.10;88.00;;;;;;5033480;28;20195;-68
2021/09/07 04:16:58;;;;;;;8.32;5.90;;;12.00;87.10;;;;;;5033090;28;20677;-69
2021/09/07 04:19:25;;;;;;;10.50;7.60;;;12.00;86.70;;;;;;5033352;28;20187;-69
2021/09/07 04:21:52;;;;;;;13.32;7.25;;;12.00;86.70;;;;;;5032808;28;20233;-71
2021/09/07 04:24:19;;;;;;;15.65;8.73;;;12.00;86.60;;;;;;5033376;28;20191;-69
2021/09/07 04:26:46;;;;;;;18.48;10.48;;;12.00;86.40;;;;;;5032754;28;20638;-68
2021/09/07 04:29:14;;;;;;;17.40;9.77;;;12.00;86.40;;;;;;5033493;28;20195;-68
2021/09/07 04:31:42;;;;;;;14.05;8.93;;;11.90;85.60;;;;;;5032990;28;20195;-69
2021/09/07 04:34:10;;;;;;;8.57;6.75;;;11.80;86.10;;;;;;5033526;28;20195;-68
2021/09/07 04:36:37;;;;;;;7.75;5.15;;;11.70;86.10;;;;;;5032606;28;20767;-69
2021/09/07 04:39:05;;;;;;;6.95;5.10;;;11.70;86.00;;;;;;5033323;28;20286;-69
2021/09/07 04:41:32;;;;;;;6.65;4.88;;;11.70;86.50;;;;;;5032730;28;20190;-71
2021/09/07 04:44:00;;;;;;;5.90;5.30;;;11.60;86.60;;;;;;5033206;28;20198;-68
2021/09/07 04:46:27;;;;;;;4.82;4.30;;;11.60;87.10;;;;;;5032692;28;20250;-69
2021/09/07 04:48:55;;;;;;;9.80;6.30;;;11.60;86.90;;;;;;5032905;28;20191;-69
2021/09/07 04:51:26;;;;;;;7.28;6.18;;;11.50;87.10;;;;;;5032188;28;20191;-69
2021/09/07 04:53:56;;;;;;;6.65;5.55;;;11.50;88.10;;;;;;5033104;28;20664;-70
2021/09/07 04:56:23;;;;;;;6.50;5.45;;;11.50;88.00;;;;;;5032546;28;20241;-69
2021/09/07 04:58:50;;;;;;;7.60;5.90;;;11.50;88.40;;;;;;5032061;28;20198;-70
2021/09/07 05:01:19;;;;;;;8.05;5.57;;;11.60;88.20;;;;;;5032303;28;20201;-68
2021/09/07 05:03:46;;;;;;;7.88;4.95;;;11.60;87.80;;;;;;5032278;28;20245;-68
2021/09/07 05:06:13;;;;;;;6.03;5.07;;;11.60;87.60;;;;;;5031835;28;20205;-68
2021/09/07 05:08:42;;;;;;;7.97;5.88;;;11.60;87.60;;;;;;5032264;28;20253;-69
2021/09/07 05:11:09;;;;;;;7.50;5.95;;;11.60;87.10;;;;;;5031878;28;20187;-69
2021/09/07 05:13:36;;;;;;;12.88;5.30;;;11.60;87.10;;;;;;5032503;28;20282;-69
2021/09/07 05:16:03;;;;;;;6.47;5.53;;;11.60;87.80;;;;;;5031854;28;20215;-68
2021/09/07 05:18:30;;;;;;;8.15;6.35;;;11.60;87.30;;;;;;5032348;28;20191;-71
2021/09/07 05:20:57;;;;;;;6.30;5.30;;;11.60;87.70;;;;;;5031226;28;20230;-69
2021/09/07 05:23:25;;;;;;;10.73;5.60;;;11.60;88.70;;;;;;5032103;28;20558;-70
2021/09/07 05:25:54;;;;;;;6.78;5.65;;;11.60;89.60;;;;;;5031851;28;20183;-68
2021/09/07 05:28:21;;;;;;;7.38;5.32;;;11.70;89.90;;;;;;5032068;28;20273;-68
2021/09/07 05:30:48;;;;;;;6.85;5.53;;;11.80;89.80;;;;;;5030922;28;20222;-69
2021/09/07 05:33:15;;;;;;;8.13;6.43;;;11.80;89.10;;;;;;5032476;28;20249;-69
2021/09/07 05:35:42;;;;;;;7.18;5.93;;;11.90;89.50;;;;;;5031864;28;20222;-69
2021/09/07 05:38:09;;;;;;;11.45;8.32;;;11.90;90.20;;;;;;5014615;28;20204;-70
2021/09/07 05:40:36;;;;;;;13.63;7.80;;;11.90;90.70;;;;;;5012470;28;20241;-70
2021/09/07 05:43:05;;;;;;;8.30;6.78;;;11.90;91.00;;;;;;5015470;28;20187;-69
2021/09/07 05:45:33;;;;;;;10.65;6.20;;;11.90;91.30;;;;;;5031266;28;20258;-69
2021/09/07 05:48:00;;;;;;;9.40;7.22;;;12.00;91.40;;;;;;5031719;28;20195;-69
2021/09/07 05:50:28;;;;;;;8.70;7.05;;;12.00;91.50;;;;;;5031537;28;20191;-69
2021/09/07 05:52:55;;;;;;;9.68;7.50;;;12.10;91.90;;;;;;5014908;28;20215;-69
2021/09/07 05:55:22;;;;;;;8.00;6.35;;;12.20;92.00;;;;;;5025076;28;20194;-69
2021/09/07 05:57:53;;;;;;;7.45;6.47;;;12.40;92.00;;;;;;5030406;28;20206;-69
2021/09/07 06:00:22;;;;;;;8.50;6.93;;;12.50;92.00;;;;;;5031767;28;20226;-69
2021/09/07 06:02:51;;;;;;;7.40;6.68;;;12.60;91.90;;;;;;5032128;28;20195;-69
2021/09/07 06:05:19;;;;;;;9.10;6.85;;;12.80;91.90;;;;;;5032131;28;20202;-70
2021/09/07 06:07:46;;;;;;;13.82;9.95;;;13.00;92.10;;;;;;5031761;28;20192;-69
2021/09/07 06:10:14;;;;;;;11.57;7.15;;;13.10;92.00;;;;;;5031950;28;20199;-68
2021/09/07 06:12:41;;;;;;;10.82;7.47;;;13.20;92.10;;;;;;5031630;28;20198;-69
2021/09/07 06:15:09;;;;;;;10.18;7.32;;;13.50;92.20;;;;;;5031497;28;20199;-69
2021/09/07 06:17:38;;;;;;;10.38;7.85;;;13.70;92.20;;;;;;5031024;28;20273;-70
2021/09/07 06:20:06;;;;;;;11.57;7.78;;;13.90;92.10;;;;;;5021183;28;20183;-68
2021/09/07 06:22:33;;;;;;;10.80;7.43;;;14.10;92.00;;;;;;5030643;28;20222;-69
2021/09/07 06:25:00;;;;;;;9.65;7.57;;;14.20;91.30;;;;;;5032061;28;20187;-69
2021/09/07 06:27:28;;;;;;;11.23;8.15;;;14.40;91.20;;;;;;5032118;28;20217;-69
2021/09/07 06:29:55;;;;;;;9.70;7.73;;;14.60;90.60;;;;;;5034273;28;20203;-69
2021/09/07 06:32:22;;;;;;;12.20;7.50;;;14.70;90.70;;;;;;5035744;28;20516;-70
2021/09/07 06:34:50;;;;;;;10.83;8.27;;;14.90;90.20;;;;;;5035838;28;20242;-69
2021/09/07 06:37:17;;;;;;;8.37;7.40;;;15.10;90.80;;;;;;5035402;28;20599;-70
2021/09/07 06:39:44;;;;;;;8.90;7.83;;;15.30;91.00;;;;;;5035470;28;20476;-69
2021/09/07 06:42:11;;;;;;;9.60;7.97;;;15.60;90.90;;;;;;5035478;28;20524;-69
2021/09/07 06:44:38;;;;;;;9.70;8.43;;;15.80;90.40;;;;;;5035062;28;20568;-69
2021/09/07 06:47:05;;;;;;;9.97;8.30;;;16.10;90.20;;;;;;5035459;28;20465;-69
2021/09/07 06:49:32;;;;;;;10.03;8.03;;;16.30;89.10;;;;;;5035500;28;20433;-69
2021/09/07 06:52:01;;;;;;;9.27;8.27;;;16.50;88.40;;;;;;5035116;28;20437;-69
2021/09/07 06:54:28;;;;;;;9.00;6.37;;;16.70;86.70;;;;;;5024498;28;20451;-70
2021/09/07 06:56:55;;;;;;;10.30;8.43;;;16.80;85.80;;;;;;5015537;28;20483;-69
2021/09/07 06:59:21;;;;;;;10.73;8.20;;;17.00;84.80;;;;;;5015671;28;20529;-69
2021/09/07 07:01:49;;;;;;;9.93;7.60;;;17.00;84.60;;;;;;5015276;28;20466;-70
2021/09/07 07:04:16;;;;;;;11.40;8.03;;;17.20;84.90;;;;;;5015640;28;20486;-69
2021/09/07 07:06:45;;;;;;;7.70;6.93;;;17.30;84.20;;;;;;5015302;28;20488;-69
2021/09/07 07:09:13;;;;;;;9.93;8.13;;;17.50;85.10;;;;;;5015350;28;20439;-69
2021/09/07 07:11:46;;;;;;;8.83;7.93;;;17.90;85.10;;;;;;5015259;28;20443;-69
2021/09/07 07:14:13;;;;;;;9.47;8.23;;;18.10;84.30;;;;;;5015244;28;20909;-69
2021/09/07 07:16:40;;;;;;;10.10;8.50;;;18.30;83.50;;;;;;5014684;28;20486;-69
2021/09/07 07:19:07;;;;;;;9.47;8.27;;;18.60;81.90;;;;;;5015154;28;20918;-69
2021/09/07 07:21:34;;;;;;;10.23;8.67;;;18.80;81.30;;;;;;5014787;28;20530;-70
2021/09/07 07:24:01;;;;;;;8.57;7.67;;;18.90;79.80;;;;;;5014995;28;20443;-69
2021/09/07 07:26:29;;;;;;;9.20;7.40;;;19.10;80.00;;;;;;5014882;28;20976;-69
2021/09/07 07:28:56;;;;;;;8.80;7.90;;;19.40;80.80;;;;;;5014715;28;20439;-69
2021/09/07 07:31:23;;;;;;;9.40;8.10;;;19.80;80.30;;;;;;5014663;28;20525;-69
2021/09/07 07:33:50;;;;;;;9.10;7.50;;;20.20;79.40;;;;;;5014787;28;20458;-70
2021/09/07 07:36:25;;;;;;;8.33;7.53;;;20.80;80.30;;;;;;5014629;28;20916;-71
2021/09/07 07:38:52;;;;;;;8.97;7.90;;;22.00;75.30;;;;;;5014589;28;20557;-70
2021/09/07 07:41:19;;;;;;;12.30;7.10;;;23.20;70.10;;;;;;5013299;28;20531;-70
2021/09/07 07:43:47;;;;;;;8.70;7.80;;;24.40;60.90;;;;;;5014383;28;20470;-69
2021/09/07 07:46:15;;;;;;;9.13;7.70;;;25.70;62.10;;;;;;5014852;28;20529;-69
2021/09/07 07:48:42;;;;;;;11.80;7.23;;;26.90;56.50;;;;;;5014731;28;20442;-69
2021/09/07 07:51:09;;;;;;;8.07;5.87;;;27.80;51.70;;;;;;5014357;28;20439;-72
2021/09/07 07:53:37;;;;;;;8.23;5.97;;;28.10;47.90;;;;;;5014599;28;20473;-70
2021/09/07 07:56:05;;;;;;;7.10;6.40;;;27.60;44.70;;;;;;5014233;28;20501;-69
2021/09/07 07:58:32;;;;;;;6.40;5.67;;;27.00;46.60;;;;;;5014504;28;20497;-70
2021/09/07 08:01:01;;;;;;;8.90;6.43;;;26.60;47.60;;;;;;5014013;28;20538;-70
2021/09/07 08:03:28;;;;;;;8.67;7.70;;;26.20;47.80;;;;;;5014345;28;20453;-70
2021/09/07 08:05:54;;;;;;;7.70;6.90;;;25.90;48.80;;;;;;5014440;28;20478;-69
2021/09/07 08:08:22;;;;;;;13.60;7.00;;;25.60;49.40;;;;;;5014370;28;20521;-70
2021/09/07 08:10:49;;;;;;;8.90;6.27;;;25.30;50.80;;;;;;5014539;28;20438;-70
2021/09/07 08:13:16;;;;;;;7.77;6.27;;;24.90;51.70;;;;;;5014215;28;20443;-70
2021/09/07 08:15:43;;;;;;;6.60;5.90;;;24.60;53.10;;;;;;5014281;28;20485;-70
2021/09/07 08:18:11;;;;;;;8.03;6.70;;;24.90;55.00;;;;;;5013797;28;20570;-70
2021/09/07 08:20:39;;;;;;;8.40;6.43;;;25.40;53.50;;;;;;5013962;28;20454;-70
2021/09/07 08:23:06;;;;;;;8.97;6.70;;;26.00;53.30;;;;;;5014068;28;20516;-70
2021/09/07 08:25:33;;;;;;;8.57;6.53;;;27.20;52.90;;;;;;5014115;28;20473;-71
2021/09/07 08:28:00;;;;;;;7.07;6.00;;;29.70;53.00;;;;;;5014111;28;20532;-71
2021/09/07 08:30:27;;;;;;;10.33;6.50;;;32.40;41.90;;;;;;5014069;28;20876;-70
2021/09/07 08:32:54;;;;;;;7.30;6.60;;;32.30;37.00;;;;;;5014176;28;20501;-71
2021/09/07 08:35:23;;;;;;;6.57;5.50;;;31.20;36.90;;;;;;5014280;28;20439;-70
2021/09/07 08:37:50;;;;;;;7.20;6.50;;;30.00;37.90;;;;;;5013955;28;20518;-70
2021/09/07 08:40:17;;;;;;;7.20;6.40;;;29.00;39.50;;;;;;5014014;28;20488;-69
2021/09/07 08:42:44;;;;;;;8.97;7.10;;;28.60;41.70;;;;;;5014054;28;20449;-69
2021/09/07 08:45:14;;;;;;;10.63;9.17;;;28.40;42.40;;;;;;5013723;28;20471;-70
2021/09/07 08:47:43;;;;;;;10.40;7.90;;;29.70;48.10;;;;;;5013952;28;20971;-70
2021/09/07 08:50:10;;;;;;;8.40;6.50;;;33.20;44.10;;;;;;5013345;28;20938;-71
2021/09/07 08:52:38;;;;;;;7.20;6.27;;;36.80;35.10;;;;;;5012977;28;20442;-71
2021/09/07 08:55:07;;;;;;;12.20;7.13;;;39.20;30.10;;;;;;5013805;28;20527;-68
2021/09/07 08:57:34;;;;;;;8.67;6.10;;;41.30;26.40;;;;;;5013423;28;20894;-68
2021/09/07 09:00:04;;;;;;;6.50;5.90;;;43.30;26.20;;;;;;5013783;28;20470;-69
2021/09/07 09:02:39;;;;;;;6.57;5.70;;;45.10;23.50;;;;;;5013741;28;20482;-68
2021/09/07 09:05:07;;;;;;;7.40;6.70;;;46.40;21.20;;;;;;5013710;28;20445;-70
2021/09/07 09:07:35;;;;;;;6.90;6.30;;;47.70;20.60;;;;;;5013520;28;20933;-69
2021/09/07 09:10:04;;;;;;;7.23;6.63;;;48.70;19.20;;;;;;5013558;28;20470;-69
2021/09/07 09:12:34;;;;;;;6.07;5.47;;;49.30;17.90;;;;;;5013255;28;20470;-69
2021/09/07 09:15:01;;;;;;;6.37;5.77;;;49.90;17.60;;;;;;5013465;28;20435;-70
2021/09/07 09:17:31;;;;;;;7.03;6.10;;;50.50;17.30;;;;;;5013508;28;20439;-69
2021/09/07 09:20:00;;;;;;;6.93;5.67;;;51.10;16.10;;;;;;5013451;28;20525;-69
2021/09/07 09:22:45;;;;;;;6.23;5.63;;;51.50;15.10;;;;;;5013303;28;20434;-70
2021/09/07 09:25:27;;;;;;;8.13;5.93;;;52.00;15.00;;;;;;5013238;28;20430;-69
2021/09/07 09:28:26;;;;;;;5.90;5.17;;;52.70;14.90;;;;;;5013194;28;20521;-70
2021/09/07 09:30:54;;;;;;;6.97;5.97;;;53.30;13.90;;;;;;5013279;28;20987;-70
2021/09/07 09:33:23;;;;;;;6.97;6.27;;;53.70;13.70;;;;;;5013104;28;20446;-70
2021/09/07 09:35:53;;;;;;;6.53;5.93;;;53.80;13.00;;;;;;5013305;28;20495;-70
2021/09/07 09:38:21;;;;;;;7.77;5.63;;;53.80;13.10;;;;;;5013165;28;20501;-70
2021/09/07 09:40:58;;;;;;;5.70;5.10;;;54.00;13.40;;;;;;5013112;28;20482;-71
2021/09/07 09:43:43;;;;;;;6.73;6.13;;;54.40;13.20;;;;;;5013285;28;20513;-69
2021/09/07 09:46:19;;;;;;;6.60;5.80;;;54.90;12.50;;;;;;5012830;28;20477;-71
2021/09/07 09:48:46;;;;;;;7.10;6.40;;;55.00;12.70;;;;;;5013231;28;20793;-69
2021/09/07 09:51:16;;;;;;;7.30;6.67;;;55.20;12.90;;;;;;5013018;28;20439;-70
2021/09/07 09:53:45;;;;;;;7.53;6.93;;;55.60;12.50;;;;;;5012974;28;20825;-70
2021/09/07 09:56:14;;;;;;;7.47;6.07;;;55.70;12.40;;;;;;5012609;28;20535;-70
2021/09/07 09:58:41;;;;;;;6.80;6.20;;;55.80;12.20;;;;;;5012809;28;20445;-69
2021/09/07 10:01:09;;;;;;;5.80;5.30;;;55.90;11.80;;;;;;5012801;28;20493;-70
2021/09/07 10:03:40;;;;;;;5.73;5.33;;;56.10;11.90;;;;;;5013278;28;20519;-71
2021/09/07 10:06:07;;;;;;;6.17;5.37;;;56.10;12.30;;;;;;5030491;28;20940;-70
2021/09/07 10:08:35;;;;;;;8.27;5.70;;;56.20;11.60;;;;;;5036200;28;20481;-70
2021/09/07 10:11:07;;;;;;;6.33;5.80;;;55.90;11.60;;;;;;5036410;28;20444;-70
2021/09/07 10:13:39;;;;;;;5.70;5.20;;;56.20;12.00;;;;;;5036148;28;20433;-70
2021/09/07 10:16:09;;;;;;;5.67;5.27;;;56.50;11.80;;;;;;5036411;28;20442;-69
2021/09/07 10:18:51;;;;;;;6.23;4.97;;;56.60;11.70;;;;;;5036361;28;20434;-70
2021/09/07 10:24:51;;;;;;;8.30;5.30;;;56.60;11.50;;;;;;5036439;28;20416;-70
2021/09/07 10:27:18;;;;;;;7.83;5.73;;;56.70;11.50;;;;;;5035776;28;20481;-72
2021/09/07 10:29:47;;;;;;;6.07;5.23;;;56.60;11.30;;;;;;5036028;28;20433;-70
2021/09/07 10:32:34;;;;;;;6.00;5.30;;;56.60;11.40;;;;;;5035967;28;20473;-70
2021/09/07 10:35:14;;;;;;;6.00;5.50;;;56.60;11.40;;;;;;5035991;28;20438;-69
2021/09/07 10:38:09;;;;;;;6.20;5.60;;;56.60;11.60;;;;;;5035871;28;20437;-70
2021/09/07 10:40:48;;;;;;;4.97;4.57;;;56.40;11.50;;;;;;5035883;28;20442;-69
2021/09/07 10:43:48;;;;;;;6.10;5.50;;;56.60;11.60;;;;;;5036015;28;20796;-69
2021/09/07 10:46:18;;;;;;;6.17;5.57;;;56.60;10.90;;;;;;5035125;28;20509;-70
2021/09/07 10:48:45;;;;;;;6.63;6.10;;;56.40;10.30;;;;;;5035486;28;20567;-69
2021/09/07 10:51:12;;;;;;;5.70;5.20;;;55.90;10.90;;;;;;5035533;28;20525;-70
2021/09/07 10:53:39;;;;;;;5.47;4.97;;;55.80;10.50;;;;;;5035682;28;20525;-70
2021/09/07 10:56:26;;;;;;;5.53;5.03;;;56.10;10.10;;;;;;5035561;28;20442;-70
2021/09/07 10:58:53;;;;;;;5.50;5.00;;;56.30;11.10;;;;;;5035749;28;20457;-70
2021/09/07 11:01:30;;;;;;;5.63;5.20;;;55.60;10.30;;;;;;5035668;28;20437;-69
2021/09/07 11:04:31;;;;;;;5.57;5.07;;;54.50;10.40;;;;;;5035741;28;20501;-69
2021/09/07 11:07:00;;;;;;;6.13;4.90;;;52.70;10.80;;;;;;5035288;28;20429;-70
2021/09/07 11:09:51;;;;;;;6.70;6.10;;;51.00;11.00;;;;;;5035453;28;20441;-69
2021/09/07 11:12:30;;;;;;;6.20;5.60;;;49.60;12.40;;;;;;5034752;28;20790;-70
2021/09/07 11:15:08;;;;;;;5.70;5.20;;;50.10;13.20;;;;;;5035178;28;20437;-69
2021/09/07 11:17:38;;;;;;;7.30;5.03;;;51.60;13.10;;;;;;5035065;28;20463;-70
2021/09/07 11:20:07;;;;;;;6.27;5.63;;;52.70;12.00;;;;;;5035328;28;20477;-69
2021/09/07 11:22:35;;;;;;;5.63;4.60;;;52.70;11.40;;;;;;5034382;28;20477;-69
2021/09/07 11:25:06;;;;;;;5.30;4.77;;;52.20;10.30;;;;;;5034752;28;20445;-69
2021/09/07 11:27:50;;;;;;;7.40;6.80;;;51.90;10.00;;;;;;5034840;28;20573;-69
2021/09/07 11:30:31;;;;;;;5.30;4.80;;;51.30;11.50;;;;;;5034792;28;20563;-69
2021/09/07 11:33:06;;;;;;;5.60;5.10;;;50.30;11.80;;;;;;5034406;28;20477;-70
2021/09/07 11:35:35;;;;;;;6.17;5.20;;;49.40;11.40;;;;;;5035003;28;20857;-69
2021/09/07 11:38:06;;;;;;;5.97;5.37;;;48.60;12.00;;;;;;5034762;28;20520;-69
2021/09/07 11:40:34;;;;;;;5.97;5.40;;;47.90;12.40;;;;;;5034581;28;20988;-73
2021/09/07 11:43:02;;;;;;;5.33;4.83;;;47.10;12.60;;;;;;5034792;28;20446;-69
2021/09/07 11:45:32;;;;;;;6.77;5.17;;;46.10;12.60;;;;;;5034502;28;20470;-69
2021/09/07 11:48:00;;;;;;;7.23;6.37;;;45.00;13.50;;;;;;5034638;28;21011;-69
2021/09/07 11:50:31;;;;;;;7.50;6.90;;;44.10;13.30;;;;;;5034400;28;20442;-70
2021/09/07 11:53:00;;;;;;;8.90;8.10;;;43.20;13.50;;;;;;5034484;28;20766;-68
2021/09/07 11:55:50;;;;;;;9.40;8.50;;;42.50;13.80;;;;;;5034647;28;20446;-69
2021/09/07 11:58:37;;;;;;;8.70;7.90;;;42.00;16.20;;;;;;5034625;28;20458;-69
2021/09/07 12:01:13;;;;;;;11.13;7.97;;;41.60;15.30;;;;;;5030169;28;20487;-68
2021/09/07 12:03:44;;;;;;;8.33;7.50;;;41.10;16.00;;;;;;5022055;28;20941;-68
2021/09/07 12:06:14;;;;;;;8.10;7.30;;;40.90;15.30;;;;;;5023779;28;20508;-69
2021/09/07 12:08:49;;;;;;;8.40;7.60;;;40.40;15.30;;;;;;5021610;28;20573;-68
2021/09/07 12:11:29;;;;;;;9.30;8.40;;;40.00;16.00;;;;;;5022857;28;21027;-68
2021/09/07 12:14:04;;;;;;;9.50;8.57;;;39.60;17.20;;;;;;5024236;28;20470;-68
2021/09/07 12:16:31;;;;;;;9.27;8.43;;;39.30;17.70;;;;;;5024652;28;20477;-68
2021/09/07 12:18:58;;;;;;;9.10;7.63;;;39.00;16.60;;;;;;5024140;28;20532;-69
2021/09/07 12:21:28;;;;;;;8.60;7.80;;;38.70;16.80;;;;;;5022276;28;20470;-69
2021/09/07 12:23:56;;;;;;;8.87;7.97;;;38.40;18.30;;;;;;5023807;28;20439;-68
2021/09/07 12:26:40;;;;;;;7.63;6.90;;;38.10;17.10;;;;;;5023011;28;20481;-69
2021/09/07 12:29:18;;;;;;;8.30;7.20;;;37.80;16.50;;;;;;5020490;28;20528;-70
2021/09/07 12:31:46;;;;;;;8.20;7.40;;;37.30;17.50;;;;;;5022806;28;20492;-68
2021/09/07 12:34:21;;;;;;;7.37;6.67;;;36.90;17.50;;;;;;5023653;28;20442;-68
2021/09/07 12:36:51;;;;;;;8.57;7.47;;;36.60;17.50;;;;;;5022264;28;20445;-68
2021/09/07 12:39:19;;;;;;;9.87;7.90;;;36.30;18.10;;;;;;5019868;28;20526;-69
2021/09/07 12:41:47;;;;;;;11.20;7.90;;;35.90;18.00;;;;;;5023356;28;20833;-68
2021/09/07 12:44:14;;;;;;;11.53;7.40;;;35.70;19.30;;;;;;5021275;28;20524;-69
2021/09/07 12:46:42;;;;;;;9.23;6.27;;;35.40;20.00;;;;;;5023999;28;20772;-68
2021/09/07 12:49:09;;;;;;;10.20;6.63;;;35.30;19.40;;;;;;5023975;28;20568;-68
2021/09/07 12:51:36;;;;;;;7.30;5.60;;;35.10;20.00;;;;;;5020874;28;20862;-68
2021/09/07 12:54:05;;;;;;;6.30;5.20;;;34.80;20.60;;;;;;5023391;28;20965;-68
2021/09/07 12:56:33;;;;;;;8.30;5.20;;;34.60;20.90;;;;;;5021686;28;20513;-68
2021/09/07 12:59:02;;;;;;;10.23;5.50;;;34.50;20.70;;;;;;5020714;28;20537;-68